Detall de PIREP

Printer-friendly versionPDF version

[2010/07/18 09:40:00]
Flight IATA:CT2104
Pilot Number:042
Company ICAO:CAT
Aircraft Type:B75F/E
PAX:3
Departing Airport: LEVC
Destination Airport: LEBB
Alternate Airport:LEMD
Online: VATSIM
Route:MANDY UM176 CLS UN733 HORTA UN867 DGO UL176 CEGAM
Flight Level:FL300
No Slew and time accel
No pause
Crash detect
Detect pilot in Cockpit between each 30 and 45 minutes
09:40 Zero fuel Weight: 120821 Lbs, Fuel Weight: 75150 Lbs
09:40 VATSIM:LEVC 180930Z VRB01KT 9999 FEW025 30/21 Q1021 NOSIG
09:40 VATSIM:LEBB 180930Z 07007KT 020V120 9999 FEW030 23/15 Q1024 NOSIG
09:40 VOICE CATALONIAN/IATA CT2104
09:50 Parking Brakes off
09:58 Take-off
09:58 Take off Weight: 194721 Lbs
09:58 Wind: 003 @ 001 Knots Heading: 296
09:58 POS N39 29 28 W000 29 13
09:58 Gear Up: 171 Knots
09:58 Flaps:3 at 171 Knots
09:58 Flaps:2 at 150 Knots
09:58 Flaps:1 at 160 Knots
09:59 Flaps:0 at
195 Knots
10:13 Wind:155@014 Knots Heading: 297 Ground Speed: 465 Knots Altitude 29291 ft
10:13 TOC
10:13 Fuel Weight: 70171 Lb
10:28 Wind:193@030 Knots Heading: 014 Ground Speed: 510 Knots Altitude 30291 ft
10:29 TOD
10:29 Fuel Weight: 68141 Lb
10:43 Wind:145@005 Knots Heading: 313 Ground Speed: 243 Knots Altitude 7001 ft
10:43 Flaps:1 at 215 Knots
10:43 Flaps:2 at 216 Knots
10:50 Flaps:3 at 206 Knots
10:51 Flaps:4 at 185 Knots
10:56 Flaps:5 at 174 Knots
10:56 Gear Down: 163 Knots
10:57 Flaps:6 at 156 Knots
10:58 Wind:081@006 Knots Heading: 107 Ground Speed: 158 Knots Altitude 3087 ft
11:00 TouchDown:Rate -402 ft/min Speed: 127 Knots
11:00 VATSIM:LEBB 181030Z 08006KT 020V130 9999 FEW030 24/15 Q1023 NOSIG
11:01 Land
11:01 Wind:081@006 Knots
11:01 Heading: 116
11:01 Flight Duration: 01:03
11:01 Landing Weight: 185811 Lbs
11:01 POS N43 18 06
W002 54 45
11:04 Parking brakes on
11:04 Block to Block Duration: 01:14
11:04 Final Fuel: 64671 Lbls
11:04 Spent Fuel: 10478 Lbls
11:04 Flight Length: 358 NM
11:04 TOD Land Length: 141 NM

Exportar CSV

Powered by Drupal - Modified by Danger4k